Time;durP1;ratioP1;P1;durP2;ratioP2;P2;SDS_P1;SDS_P2;PMS_P1;PMS_P2;Temp;Humidity;BMP_temperature;BMP_pressure;BME280_temperature;BME280_humidity;BME280_pressure;Samples;Min_cycle;Max_cycle;Signal;HPM_P1;HPM_P2
2020/12/29 14:24:05;;;;;;;4.40;2.10;;;21.90;99.90;;;;;;5106331;27;20388;-54
2020/12/29 14:26:31;;;;;;;5.00;2.92;;;21.40;99.90;;;;;;5084679;28;20074;-55
2020/12/29 14:28:57;;;;;;;6.90;2.25;;;21.30;99.90;;;;;;5087324;28;20446;-58
2020/12/29 14:31:23;;;;;;;4.15;2.03;;;21.10;99.90;;;;;;5081798;28;20017;-56
2020/12/29 14:33:49;;;;;;;8.32;2.63;;;21.40;99.90;;;;;;5084708;28;20026;-54
2020/12/29 14:36:15;;;;;;;5.40;2.65;;;21.10;99.90;;;;;;5087412;28;20090;-60
2020/12/29 14:38:40;;;;;;;4.03;2.15;;;20.80;99.90;;;;;;5085962;28;20031;-64
2020/12/29 14:41:06;;;;;;;7.75;2.13;;;20.80;99.90;;;;;;5086706;28;20020;-57
2020/12/29 14:43:32;;;;;;;11.00;3.83;;;20.50;99.90;;;;;;5087999;28;20090;-58
2020/12/29 14:45:59;;;;;;;5.65;3.00;;;20.40;99.90;;;;;;5086421;28;20032;-55
2020/12/29 14:48:24;;;;;;;7.45;2.78;;;20.30;99.90;;;;;;5090491;28;20021;-63
2020/12/29 14:50:52;;;;;;;13.10;3.58;;;19.90;99.90;;;;;;5084581;28;20377;-55
2020/12/29 15:22:15;;;;;;;13.75;6.20;;;21.80;99.90;;;;;;5090400;27;20389;-60
2020/12/29 15:24:41;;;;;;;11.52;4.78;;;21.10;99.90;;;;;;5071080;28;20083;-65
2020/12/29 15:27:07;;;;;;;9.63;5.03;;;20.70;99.90;;;;;;5079926;28;20017;-55
2020/12/29 15:32:15;;;;;;;10.77;4.10;;;20.70;99.90;;;;;;5100122;27;20830;-34
2020/12/29 15:34:44;;;;;;;7.15;4.18;;;20.60;99.90;;;;;;5086346;28;20020;-34
2020/12/29 15:37:11;;;;;;;10.45;3.90;;;20.40;99.90;;;;;;5085111;28;20055;-34
2020/12/29 15:39:37;;;;;;;10.87;4.10;;;20.30;99.90;;;;;;5088800;28;20020;-34
2020/12/29 15:42:02;;;;;;;17.17;4.47;;;20.10;99.90;;;;;;5088449;28;20283;-33
2020/12/29 15:44:28;;;;;;;9.70;4.65;;;20.00;99.90;;;;;;5088343;28;20025;-33
2020/12/29 15:46:54;;;;;;;8.05;3.92;;;19.90;99.90;;;;;;5089068;28;20762;-33
2020/12/29 15:49:20;;;;;;;7.82;3.50;;;19.80;99.90;;;;;;5087988;28;20105;-33
2020/12/29 15:51:46;;;;;;;9.98;3.70;;;19.70;99.90;;;;;;5088098;28;20481;-33
2020/12/29 15:54:12;;;;;;;9.40;3.63;;;19.60;99.90;;;;;;5088401;28;20036;-33
2020/12/29 15:56:38;;;;;;;9.30;3.45;;;19.70;99.90;;;;;;5088786;28;20024;-32
2020/12/29 15:59:04;;;;;;;9.32;3.72;;;19.60;99.90;;;;;;5088944;28;20440;-32
2020/12/29 16:01:29;;;;;;;10.00;3.50;;;19.50;99.90;;;;;;5088172;28;20429;-32
2020/12/29 16:03:55;;;;;;;12.35;3.72;;;19.50;99.90;;;;;;5088725;28;20039;-32
2020/12/29 16:06:27;;;;;;;9.27;3.60;;;19.50;99.90;;;;;;5087495;28;20027;-32
2020/12/29 16:08:53;;;;;;;5.47;3.13;;;19.40;99.90;;;;;;5088480;28;20021;-32
2020/12/29 16:11:19;;;;;;;8.27;2.78;;;19.40;99.90;;;;;;5083373;28;20077;-34
2020/12/29 16:13:45;;;;;;;6.18;2.67;;;19.40;99.90;;;;;;5088729;28;20048;-34
2020/12/29 16:16:13;;;;;;;11.75;5.90;;;19.40;99.90;;;;;;5087669;28;20043;-34
2020/12/29 16:18:38;;;;;;;;;;;19.40;99.90;;;;;;5089058;28;20024;-34
2020/12/29 16:21:04;;;;;;;9.63;5.95;;;19.30;99.90;;;;;;5088391;28;19904;-34
2020/12/29 16:23:30;;;;;;;13.07;6.80;;;19.20;99.90;;;;;;5088835;28;20470;-33
2020/12/29 16:25:56;;;;;;;9.07;6.43;;;19.20;99.90;;;;;;5089107;28;20028;-33
2020/12/29 16:28:21;;;;;;;11.38;7.30;;;19.20;99.90;;;;;;5088399;28;20030;-33
2020/12/29 16:30:47;;;;;;;12.35;6.57;;;19.20;99.90;;;;;;5089026;28;20132;-39
2020/12/29 16:33:14;;;;;;;13.80;6.80;;;19.20;99.90;;;;;;5087584;28;20028;-33
2020/12/29 16:35:43;;;;;;;7.75;5.45;;;19.20;99.90;;;;;;5087740;28;20021;-33
2020/12/29 16:38:09;;;;;;;12.15;5.75;;;19.10;99.90;;;;;;5087230;28;20059;-33
2020/12/29 16:40:35;;;;;;;12.88;6.05;;;19.00;99.90;;;;;;5086677;28;20048;-33
2020/12/29 16:43:00;;;;;;;17.48;8.25;;;19.00;99.90;;;;;;5077664;28;20385;-33
2020/12/29 16:45:26;;;;;;;11.10;8.40;;;19.00;99.90;;;;;;5074539;28;20094;-33
2020/12/29 16:47:52;;;;;;;11.35;8.35;;;19.00;99.90;;;;;;5075028;28;20055;-33
2020/12/29 16:50:18;;;;;;;16.42;9.00;;;19.00;99.90;;;;;;5075078;28;20032;-33
2020/12/29 16:52:45;;;;;;;13.38;8.93;;;19.00;99.90;;;;;;5075023;28;20112;-33
2020/12/29 16:55:10;;;;;;;12.63;8.80;;;18.90;99.90;;;;;;5075097;28;20025;-33
2020/12/29 16:57:36;;;;;;;13.40;8.80;;;18.80;99.90;;;;;;5075473;28;20460;-33
2020/12/29 17:00:04;;;;;;;13.68;7.65;;;18.90;99.90;;;;;;5089447;28;20028;-33
2020/12/29 17:02:30;;;;;;;12.57;7.72;;;18.90;99.90;;;;;;5073291;28;20761;-33
2020/12/29 17:04:56;;;;;;;14.10;8.68;;;18.90;99.90;;;;;;5074915;28;20033;-33
2020/12/29 17:07:22;;;;;;;19.15;10.60;;;18.90;99.90;;;;;;5074228;28;20497;-34
2020/12/29 17:09:47;;;;;;;21.08;12.18;;;18.90;99.90;;;;;;5073435;28;20025;-33
2020/12/29 17:12:16;;;;;;;19.63;12.95;;;18.90;99.90;;;;;;5074297;28;20037;-33
2020/12/29 17:14:42;;;;;;;18.38;13.32;;;18.90;99.90;;;;;;5072063;28;20020;-33
2020/12/29 17:17:08;;;;;;;28.23;17.48;;;18.80;99.90;;;;;;5087619;28;20386;-33
2020/12/29 17:19:34;;;;;;;24.98;18.25;;;18.80;99.90;;;;;;5065372;28;20029;-33
2020/12/29 17:22:03;;;;;;;25.80;17.15;;;18.80;99.90;;;;;;5074245;28;20029;-33
2020/12/29 17:24:29;;;;;;;24.27;16.63;;;18.90;99.90;;;;;;5074300;28;20024;-32
2020/12/29 17:26:55;;;;;;;21.25;16.83;;;18.80;99.90;;;;;;5074236;28;20428;-32
2020/12/29 17:29:21;;;;;;;23.95;16.92;;;18.80;99.90;;;;;;5073485;28;20025;-32
2020/12/29 17:31:47;;;;;;;24.33;15.70;;;18.80;99.90;;;;;;5073472;28;20055;-33
2020/12/29 17:34:13;;;;;;;26.33;17.23;;;18.80;99.90;;;;;;5074049;28;20024;-34
2020/12/29 17:36:39;;;;;;;23.90;18.08;;;18.80;99.90;;;;;;5074189;28;20027;-33
2020/12/29 17:39:05;;;;;;;20.52;15.07;;;18.80;99.90;;;;;;5072469;28;20386;-35
2020/12/29 17:41:31;;;;;;;25.83;17.05;;;18.80;99.90;;;;;;5074204;28;20031;-34
2020/12/29 17:43:56;;;;;;;23.73;17.27;;;18.70;99.90;;;;;;5073573;28;20048;-33
2020/12/29 17:46:23;;;;;;;26.88;17.55;;;18.70;99.90;;;;;;5073989;28;20040;-33
2020/12/29 17:48:50;;;;;;;24.63;16.90;;;18.80;99.90;;;;;;5073864;28;20044;-33
2020/12/29 17:51:18;;;;;;;23.55;17.20;;;18.70;99.90;;;;;;5073722;28;20474;-34
2020/12/29 17:53:44;;;;;;;21.38;16.33;;;18.70;99.90;;;;;;5070200;28;20402;-34
2020/12/29 17:56:25;;;;;;;24.52;17.23;;;18.70;99.90;;;;;;5067571;28;20387;-34
2020/12/29 17:58:52;;;;;;;22.80;17.55;;;18.70;99.90;;;;;;5072088;28;20040;-32
2020/12/29 18:01:21;;;;;;;22.10;15.18;;;18.70;99.90;;;;;;5073511;28;20059;-33
2020/12/29 18:03:47;;;;;;;21.80;16.80;;;18.70;99.90;;;;;;5072730;28;20445;-32
2020/12/29 18:06:16;;;;;;;26.60;17.23;;;18.70;99.90;;;;;;5071644;28;20031;-33
2020/12/29 18:08:42;;;;;;;23.25;16.83;;;18.70;99.90;;;;;;5072957;28;20024;-33
2020/12/29 18:11:08;;;;;;;20.35;16.05;;;18.70;99.90;;;;;;5073125;28;20070;-32
2020/12/29 18:13:34;;;;;;;21.10;16.30;;;18.70;99.90;;;;;;5073228;28;20497;-33
2020/12/29 18:16:00;;;;;;;23.25;17.27;;;18.70;99.90;;;;;;5072643;28;20028;-33
2020/12/29 18:18:28;;;;;;;23.83;15.63;;;18.70;99.90;;;;;;5073304;28;20047;-34
2020/12/29 18:20:54;;;;;;;23.17;16.27;;;18.60;99.90;;;;;;5072995;28;20029;-34
2020/12/29 18:23:20;;;;;;;28.45;19.90;;;18.60;99.90;;;;;;5072849;28;20020;-34
2020/12/29 18:25:47;;;;;;;33.60;23.48;;;18.60;99.90;;;;;;5073256;28;20094;-33
2020/12/29 18:28:13;;;;;;;41.88;32.15;;;18.50;99.90;;;;;;5063461;28;20071;-33
2020/12/29 18:30:39;;;;;;;37.47;28.65;;;18.50;99.90;;;;;;5072424;28;20053;-34
2020/12/29 18:33:05;;;;;;;38.03;28.50;;;18.50;99.90;;;;;;5071680;28;20025;-34
2020/12/29 18:35:31;;;;;;;41.05;31.05;;;18.50;99.90;;;;;;5062454;28;20016;-33
2020/12/29 18:37:57;;;;;;;41.28;30.90;;;18.60;99.90;;;;;;5069427;28;20024;-33
2020/12/29 18:40:23;;;;;;;36.85;29.45;;;18.50;99.90;;;;;;5071478;28;20038;-34
2020/12/29 18:42:49;;;;;;;41.28;29.95;;;18.50;99.90;;;;;;5067606;28;20032;-34
2020/12/29 18:45:15;;;;;;;33.00;24.70;;;18.50;99.90;;;;;;5068506;28;20356;-34
2020/12/29 18:47:43;;;;;;;39.30;32.13;;;18.50;99.90;;;;;;5072848;28;20043;-34
2020/12/29 18:50:09;;;;;;;45.25;34.92;;;18.60;99.90;;;;;;5070360;28;20024;-33
2020/12/29 18:52:35;;;;;;;41.92;32.92;;;18.60;99.90;;;;;;5072043;28;20062;-32
2020/12/29 18:55:00;;;;;;;39.40;29.55;;;18.60;99.90;;;;;;5072355;28;20066;-32
2020/12/29 18:57:26;;;;;;;39.58;31.27;;;18.60;99.90;;;;;;5069343;28;20016;-31
2020/12/29 18:59:52;;;;;;;41.92;32.30;;;18.60;99.90;;;;;;5071777;28;20024;-33
2020/12/29 19:02:18;;;;;;;41.67;31.55;;;18.60;99.90;;;;;;5072314;28;20040;-34
2020/12/29 19:04:44;;;;;;;39.80;32.80;;;18.60;99.90;;;;;;5069800;28;20024;-33
2020/12/29 19:07:12;;;;;;;39.92;32.10;;;18.60;99.90;;;;;;5072300;28;20035;-33
2020/12/29 19:09:38;;;;;;;37.83;31.00;;;18.50;99.90;;;;;;5070029;28;20029;-33
2020/12/29 19:12:04;;;;;;;36.50;27.83;;;18.60;99.90;;;;;;5066649;28;20033;-33
2020/12/29 19:14:30;;;;;;;37.08;28.83;;;18.60;99.90;;;;;;5062662;28;20465;-33
2020/12/29 19:16:56;;;;;;;37.28;27.48;;;18.50;99.90;;;;;;5061322;28;20021;-33
2020/12/29 19:19:23;;;;;;;37.30;25.30;;;18.50;99.90;;;;;;5072507;28;20424;-33
2020/12/29 19:21:49;;;;;;;22.83;18.63;;;18.60;99.90;;;;;;5072562;28;20732;-34
2020/12/29 19:24:15;;;;;;;28.65;19.77;;;18.50;99.90;;;;;;5073949;28;20028;-34
2020/12/29 19:26:42;;;;;;;37.47;29.15;;;18.50;99.90;;;;;;5071866;28;20024;-33
2020/12/29 19:29:10;;;;;;;45.05;32.45;;;18.50;99.90;;;;;;5072107;28;20106;-33
2020/12/29 19:31:36;;;;;;;28.00;19.48;;;18.40;99.90;;;;;;5065348;28;20141;-34
2020/12/29 19:34:02;;;;;;;19.50;14.23;;;18.40;99.90;;;;;;5068545;28;20035;-33
2020/12/29 19:36:28;;;;;;;19.23;12.60;;;18.40;99.90;;;;;;5072213;28;20446;-33
2020/12/29 19:38:53;;;;;;;20.50;13.27;;;18.40;99.90;;;;;;5072043;28;20052;-32
2020/12/29 19:41:19;;;;;;;14.68;8.93;;;18.40;99.90;;;;;;5071622;28;20028;-34
2020/12/29 19:43:46;;;;;;;9.82;6.65;;;18.40;99.90;;;;;;5072435;28;20021;-34
2020/12/29 19:46:13;;;;;;;10.77;6.85;;;18.40;99.90;;;;;;5071585;28;20474;-32
2020/12/29 19:48:39;;;;;;;32.70;20.47;;;18.30;99.90;;;;;;5072164;28;20029;-32
2020/12/29 19:51:13;;;;;;;34.38;26.25;;;18.20;99.90;;;;;;5071192;28;20086;-32
2020/12/29 19:53:39;;;;;;;43.35;31.13;;;18.30;99.90;;;;;;5070343;28;20020;-32
2020/12/29 19:56:06;;;;;;;49.50;37.88;;;18.40;99.90;;;;;;5071273;28;20077;-34
2020/12/29 19:58:32;;;;;;;52.15;35.28;;;18.30;99.90;;;;;;5072152;28;20020;-35
2020/12/29 20:00:59;;;;;;;48.15;37.05;;;18.30;99.90;;;;;;5071728;28;20035;-32
2020/12/29 20:03:26;;;;;;;44.47;33.22;;;18.40;99.90;;;;;;5071998;28;20511;-32
2020/12/29 20:05:52;;;;;;;41.17;32.33;;;18.40;99.90;;;;;;5071620;28;20118;-32
2020/12/29 20:08:18;;;;;;;48.53;35.58;;;18.40;99.90;;;;;;5071730;28;20059;-32
2020/12/29 20:10:45;;;;;;;52.08;35.08;;;18.40;99.90;;;;;;5071271;28;20025;-34
2020/12/29 20:13:21;;;;;;;41.72;31.08;;;18.40;99.90;;;;;;5071814;28;20029;-33
2020/12/29 20:15:49;;;;;;;40.08;27.17;;;18.40;99.90;;;;;;5065163;28;20468;-33
2020/12/29 20:18:18;;;;;;;40.78;28.42;;;18.50;99.90;;;;;;5073820;28;20032;-33
2020/12/29 20:20:44;;;;;;;40.53;27.42;;;18.50;99.90;;;;;;5075380;28;20032;-33
2020/12/29 20:23:11;;;;;;;34.33;25.23;;;18.50;99.90;;;;;;5074598;28;20430;-33
2020/12/29 20:25:41;;;;;;;44.95;25.67;;;18.50;99.90;;;;;;5075161;28;20035;-33
2020/12/29 20:28:08;;;;;;;38.33;24.65;;;18.50;99.90;;;;;;5075134;28;20104;-34
2020/12/29 20:30:34;;;;;;;32.58;22.77;;;18.50;99.90;;;;;;5075060;28;20048;-33
2020/12/29 20:33:01;;;;;;;33.67;24.50;;;18.50;99.90;;;;;;5075834;28;20101;-33
2020/12/29 20:35:28;;;;;;;37.88;25.05;;;18.50;99.90;;;;;;5075343;28;20044;-34
2020/12/29 20:37:54;;;;;;;28.77;22.17;;;18.50;99.90;;;;;;5075052;28;20096;-33
2020/12/29 20:40:20;;;;;;;30.35;23.17;;;18.50;99.90;;;;;;5075352;28;20028;-33
2020/12/29 20:42:46;;;;;;;34.15;21.48;;;18.50;99.90;;;;;;5075092;28;20113;-33
2020/12/29 20:45:12;;;;;;;29.42;19.67;;;18.50;99.90;;;;;;5072631;28;20033;-32
2020/12/29 20:47:38;;;;;;;28.15;19.25;;;18.50;99.90;;;;;;5074680;28;20494;-32
2020/12/29 20:50:04;;;;;;;21.83;16.58;;;18.50;99.90;;;;;;5074114;28;20027;-33
2020/12/29 20:52:30;;;;;;;28.45;17.55;;;18.50;99.90;;;;;;5074957;28;20013;-32
2020/12/29 20:54:56;;;;;;;25.17;16.40;;;18.50;99.90;;;;;;5075214;28;20043;-33
2020/12/29 20:57:21;;;;;;;26.90;17.08;;;18.40;99.90;;;;;;5074979;28;20104;-35
2020/12/29 20:59:47;;;;;;;19.60;15.45;;;18.40;99.90;;;;;;5075351;28;20109;-33
2020/12/29 21:02:13;;;;;;;25.67;13.48;;;18.40;99.90;;;;;;5074936;28;20028;-34
2020/12/29 21:04:39;;;;;;;20.58;14.07;;;18.50;99.90;;;;;;5074551;28;20107;-34
2020/12/29 21:07:05;;;;;;;22.33;14.98;;;18.50;99.90;;;;;;5073351;28;20029;-34
2020/12/29 21:09:31;;;;;;;18.00;13.10;;;18.40;99.90;;;;;;5074168;28;20462;-33
2020/12/29 21:11:57;;;;;;;19.05;12.43;;;18.50;99.90;;;;;;5074718;28;20470;-33
2020/12/29 21:14:23;;;;;;;21.95;11.73;;;18.40;99.90;;;;;;5073023;28;20099;-33
2020/12/29 21:16:50;;;;;;;16.67;11.93;;;18.40;99.90;;;;;;5071875;28;20016;-33
2020/12/29 21:19:15;;;;;;;16.38;11.90;;;18.40;99.90;;;;;;5074585;28;20035;-33
2020/12/29 21:21:41;;;;;;;25.73;15.75;;;18.50;99.90;;;;;;5074285;28;20020;-34
2020/12/29 21:24:07;;;;;;;35.47;27.23;;;18.40;99.90;;;;;;5074760;28;20029;-33
2020/12/29 21:26:35;;;;;;;52.25;41.45;;;18.50;99.90;;;;;;5074513;28;20663;-34
2020/12/29 21:29:01;;;;;;;;;;;18.50;99.90;;;;;;5074545;28;20021;-33
2020/12/29 21:31:29;;;;;;;53.95;42.10;;;18.40;99.90;;;;;;5074405;28;20354;-34
2020/12/29 21:33:55;;;;;;;;;;;18.40;99.90;;;;;;5070471;28;20020;-33
2020/12/29 21:36:23;;;;;;;45.25;34.00;;;18.50;99.90;;;;;;5073862;28;20003;-33
2020/12/29 21:38:49;;;;;;;43.40;33.97;;;18.50;99.90;;;;;;5074249;28;20022;-33
2020/12/29 21:41:16;;;;;;;44.53;33.70;;;18.50;99.90;;;;;;5070316;28;20043;-33
2020/12/29 21:43:42;;;;;;;40.00;32.47;;;18.50;99.90;;;;;;5073674;28;20518;-33
2020/12/29 21:46:17;;;;;;;38.22;30.83;;;18.50;99.90;;;;;;5072908;28;20033;-33
2020/12/29 21:48:44;;;;;;;33.63;27.90;;;18.50;99.90;;;;;;5073894;28;20020;-32
2020/12/29 21:51:21;;;;;;;36.65;27.45;;;18.50;99.90;;;;;;5072143;28;20024;-33
2020/12/29 21:53:48;;;;;;;33.35;26.23;;;18.50;99.90;;;;;;5074058;28;20029;-32
2020/12/29 21:56:17;;;;;;;29.23;23.38;;;18.40;99.90;;;;;;5073344;28;20418;-33
2020/12/29 21:58:43;;;;;;;29.08;23.65;;;18.50;99.90;;;;;;5073793;28;20027;-34
2020/12/29 22:01:10;;;;;;;33.50;23.30;;;18.40;99.90;;;;;;5073949;28;20107;-34
2020/12/29 22:03:36;;;;;;;;;;;18.40;99.90;;;;;;5073944;28;20025;-34
2020/12/29 22:06:13;;;;;;;26.00;21.38;;;18.40;99.90;;;;;;5096407;28;19911;-33
2020/12/29 22:08:39;;;;;;;25.08;20.80;;;18.40;99.90;;;;;;5072636;28;20331;-33
2020/12/29 22:11:06;;;;;;;27.17;20.40;;;18.40;99.90;;;;;;5073304;28;20033;-33
2020/12/29 22:13:32;;;;;;;22.83;19.20;;;18.40;99.90;;;;;;5071250;28;20028;-34
2020/12/29 22:15:58;;;;;;;26.60;19.02;;;18.50;99.90;;;;;;5073227;28;20490;-33
2020/12/29 22:18:24;;;;;;;23.80;18.20;;;18.40;99.90;;;;;;5073404;28;20474;-34
2020/12/29 22:20:50;;;;;;;26.08;18.63;;;18.40;99.90;;;;;;5073097;28;20032;-33
2020/12/29 22:23:16;;;;;;;23.92;18.45;;;18.40;99.90;;;;;;5072670;28;20048;-33
2020/12/29 22:25:41;;;;;;;21.08;17.02;;;18.40;99.90;;;;;;5073447;28;20109;-33
2020/12/29 22:28:07;;;;;;;23.02;17.98;;;18.30;99.90;;;;;;5073049;28;20028;-33
2020/12/29 22:30:33;;;;;;;25.60;21.98;;;18.40;99.90;;;;;;5072837;28;20037;-33
2020/12/29 22:32:59;;;;;;;38.75;30.73;;;18.40;99.90;;;;;;5073194;28;20048;-34
2020/12/29 22:35:24;;;;;;;43.20;35.13;;;18.30;99.90;;;;;;5072558;28;20024;-33
2020/12/29 22:37:50;;;;;;;41.00;34.28;;;18.30;99.90;;;;;;5072663;28;20100;-33
2020/12/29 22:40:16;;;;;;;43.85;33.72;;;18.30;99.90;;;;;;5069673;28;20029;-33
2020/12/29 22:42:42;;;;;;;43.40;34.63;;;18.30;99.90;;;;;;5069940;28;20025;-33
2020/12/29 22:45:07;;;;;;;38.10;31.08;;;18.30;99.90;;;;;;5071647;28;20115;-33
2020/12/29 22:47:36;;;;;;;36.65;30.85;;;18.20;99.90;;;;;;5072662;28;20471;-34
2020/12/29 22:50:05;;;;;;;36.17;30.55;;;18.30;99.90;;;;;;5072204;28;20051;-33
2020/12/29 22:52:31;;;;;;;38.88;29.65;;;18.30;99.90;;;;;;5072131;28;20532;-33
2020/12/29 22:54:57;;;;;;;43.10;31.88;;;18.20;99.90;;;;;;5072075;28;20024;-33
2020/12/29 22:57:23;;;;;;;32.95;26.85;;;18.20;99.90;;;;;;5072631;28;20493;-33
2020/12/29 22:59:50;;;;;;;33.90;25.63;;;18.20;99.90;;;;;;5072218;28;20020;-33
2020/12/29 23:02:17;;;;;;;33.58;25.02;;;18.20;99.90;;;;;;5071081;28;20060;-33
2020/12/29 23:04:42;;;;;;;32.40;23.70;;;18.20;99.90;;;;;;5072422;28;20524;-33
2020/12/29 23:07:09;;;;;;;30.67;23.80;;;18.20;99.90;;;;;;5072156;28;20040;-33
2020/12/29 23:09:35;;;;;;;24.00;18.17;;;18.10;99.90;;;;;;5072671;28;20374;-33
2020/12/29 23:12:01;;;;;;;26.63;18.52;;;18.00;99.90;;;;;;5071989;28;20047;-33
2020/12/29 23:14:29;;;;;;;24.90;18.42;;;17.90;99.90;;;;;;5072160;28;20016;-33
2020/12/29 23:16:55;;;;;;;25.58;19.08;;;17.90;99.90;;;;;;5072478;28;20028;-33
2020/12/29 23:19:21;;;;;;;23.48;16.85;;;17.90;99.90;;;;;;5072660;28;20547;-33
2020/12/29 23:21:47;;;;;;;21.45;17.88;;;17.80;99.90;;;;;;5072182;28;20063;-33
2020/12/29 23:24:13;;;;;;;20.65;16.30;;;17.80;99.90;;;;;;5071812;28;20048;-34
2020/12/29 23:26:38;;;;;;;20.73;15.63;;;17.70;99.90;;;;;;5072308;28;20035;-33
2020/12/29 23:29:05;;;;;;;22.63;16.85;;;17.70;99.90;;;;;;5068401;28;20130;-34
2020/12/29 23:31:30;;;;;;;21.05;15.07;;;17.70;99.90;;;;;;5076987;28;20040;-34
2020/12/29 23:33:57;;;;;;;22.02;15.45;;;17.60;99.90;;;;;;5073315;28;20042;-33
2020/12/29 23:36:24;;;;;;;14.73;10.95;;;17.60;99.90;;;;;;5073166;28;20029;-33
2020/12/29 23:38:50;;;;;;;25.77;18.80;;;17.50;99.90;;;;;;5072373;28;20104;-33
2020/12/29 23:41:17;;;;;;;53.25;38.83;;;17.50;99.90;;;;;;5062108;28;20112;-34
2020/12/29 23:43:43;;;;;;;58.10;44.55;;;17.50;99.90;;;;;;5072044;28;20460;-34
2020/12/29 23:46:12;;;;;;;62.33;45.90;;;17.50;99.90;;;;;;5072110;28;20086;-34
2020/12/29 23:48:39;;;;;;;52.55;41.22;;;17.40;99.90;;;;;;5072094;28;20032;-33
2020/12/29 23:51:05;;;;;;;51.85;41.88;;;17.40;99.90;;;;;;5072435;28;20542;-34
2020/12/29 23:53:31;;;;;;;52.83;40.90;;;17.40;99.90;;;;;;5072260;28;20044;-32
2020/12/29 23:55:57;;;;;;;48.95;36.72;;;17.40;99.90;;;;;;5071793;28;20047;-33
2020/12/29 23:58:23;;;;;;;48.55;37.88;;;17.30;99.90;;;;;;5070798;28;20017;-32
